Aviation Digital Data Service (ADDS)

Output produced by METARs form (1823 UTC 22 November 2017)
found at http://www.aviationweather.gov/adds/metars/
 
TAF KIAB 221800Z 2218/2324 20006KT 9999 FEW200 QNH3009INS 
     BECMG 2313/2314 30006KT 9999 SKC QNH3000INS 
     BECMG 2322/2323 20006KT 9999 FEW200 QNH2996INS TX15/2318Z TN00/2311Z
       
KIAD 221726Z 2218/2324 33015G25KT P6SM FEW250 
     FM230000 33008KT P6SM SKC 
     FM230800 32004KT P6SM SKC 
     FM231800 26004KT P6SM FEW250
       
KIAG 221734Z 2218/2318 30015KT P6SM OVC035 
     FM230300 30004KT P6SM SCT035 
     FM230700 25004KT P6SM BKN120 
     FM231700 23010G18KT P6SM BKN035
       
KIAH 221723Z 2218/2324 01011KT P6SM FEW030 
     FM230100 35004KT P6SM SKC 
     FM231500 01008KT P6SM SKC
       
KICT 221725Z 2218/2318 20009KT P6SM SCT250 
     FM231500 33008KT P6SM SCT250
       
KIDA 221723Z 2218/2318 22007KT P6SM BKN100 OVC250 
     FM230500 36006KT P6SM FEW002 BKN250 
     FM231000 32005KT 1SM BR BKN004 OVC200 
     FM231500 30006KT 6SM BR SCT007 BKN180
       
KIFP 221720Z 2218/2318 36018G26KT P6SM SKC 
     FM230100 02011KT P6SM SKC
       
KILG 221733Z 2218/2318 32016G32KT P6SM SCT045 
     FM230000 33011G22KT P6SM SKC 
     FM230300 32009KT P6SM SKC 
     FM230900 33005KT P6SM SKC 
     FM231700 30007KT P6SM SKC
       
KILM 221720Z 2218/2318 30010KT P6SM SCT060 
     FM230200 01005KT P6SM BKN250
       
KILN 221733Z 2218/2318 36009KT P6SM BKN035 
     TEMPO 2218/2220 BKN028 
     FM222300 VRB03KT P6SM SCT035 
     FM230100 VRB03KT P6SM SKC 
     FM230700 VRB03KT P6SM BKN250 
     FM231500 20007KT P6SM BKN120
       
KIND 221808Z 2218/2324 33005KT P6SM SCT030 
     TEMPO 2218/2221 BKN035 
     FM230000 VRB03KT P6SM SCT150 
     FM231400 21006KT P6SM SCT090
       
TAF KINS 221500Z 2215/2321 VRB06KT 9999 FEW200 QNH3013INS TX23/2221Z TN07/2314Z
       
KINT 221720Z 2218/2318 32009G18KT P6SM SKC 
     FM230000 01007KT P6SM BKN250
       
KINW 221720Z 2218/2318 VRB05KT P6SM FEW250
       
KIPL 221726Z 2218/2318 03005KT P6SM SKC 
     FM230300 29005KT P6SM SKC
       
KIPT 221742Z 2218/2318 32013G20KT P6SM VCSH SCT035 SCT040 OVC060 
     FM222200 32011G19KT P6SM FEW250 
     FM230200 31009KT P6SM SKC 
     FM231100 29003KT P6SM BKN250
       
KISM 221753Z 2218/2318 05008KT P6SM SCT025 
     FM230600 04006KT P6SM SCT010 BKN025 
     TEMPO 2309/2312 SCT006 BKN010 
     FM231400 12008KT P6SM VCSH SCT025 BKN040 OVC080
       
KISN 221727Z 2218/2318 29015G23KT P6SM FEW200 
     FM222200 32011KT P6SM FEW250 
     FM230000 35005KT P6SM FEW250 
     FM230700 19004KT P6SM BKN200 
     FM231200 22006KT P6SM SCT040 SCT070
       
KISO 221746Z 2218/2318 33013G19KT P6SM SCT050 
     FM222200 01007KT P6SM FEW250 AMD LTD TO CLD VIS AND WIND
       
KISP 221730Z 2218/2318 34010KT P6SM VCSH BKN030 BKN060 
     FM222000 33016G23KT P6SM SCT050 
     TEMPO 2220/2222 BKN050 
     FM230100 33016G23KT P6SM SKC 
     FM230500 32011KT P6SM SKC 
     FM230800 32006KT P6SM SKC
       
KITH 221735Z 2218/2318 31013KT P6SM OVC015 
     FM222200 32012KT P6SM BKN025 
     FM230500 31007KT P6SM BKN035 
     FM231500 24004KT P6SM BKN080
       
KIWA 221726Z 2218/2318 10010G18KT P6SM SKC 
     FM222300 VRB04KT P6SM FEW250 
     FM230400 11006KT P6SM FEW250
       
KIXD 221728Z 2218/2318 VRB03KT P6SM SKC 
     FM230500 20009KT P6SM FEW250